sensor_id;sensor_type;location;lat;lon;timestamp;pressure;altitude;pressure_sealevel;temperature;humidity
71774;BME280;59607;52.130;5.430;2023-08-24T00:01:22;101932.28;;;17.47;100.00
71774;BME280;59607;52.130;5.430;2023-08-24T00:03:48;101926.16;;;17.47;100.00
71774;BME280;59607;52.130;5.430;2023-08-24T00:06:15;101917.75;;;17.43;100.00
71774;BME280;59607;52.130;5.430;2023-08-24T00:08:45;101923.41;;;17.40;100.00
71774;BME280;59607;52.130;5.430;2023-08-24T00:11:12;101922.59;;;17.39;100.00
71774;BME280;59607;52.130;5.430;2023-08-24T00:13:44;101921.56;;;17.41;100.00
71774;BME280;59607;52.130;5.430;2023-08-24T00:16:20;101907.69;;;17.38;100.00
71774;BME280;59607;52.130;5.430;2023-08-24T00:18:56;101907.03;;;17.36;100.00
71774;BME280;59607;52.130;5.430;2023-08-24T00:21:22;101918.84;;;17.34;100.00
71774;BME280;59607;52.130;5.430;2023-08-24T00:23:50;101918.00;;;17.33;100.00
71774;BME280;59607;52.130;5.430;2023-08-24T00:26:20;101917.81;;;17.35;100.00
71774;BME280;59607;52.130;5.430;2023-08-24T00:28:46;101909.03;;;17.34;100.00
71774;BME280;59607;52.130;5.430;2023-08-24T00:31:15;101904.38;;;17.36;100.00
71774;BME280;59607;52.130;5.430;2023-08-24T00:33:49;101917.66;;;17.36;100.00
71774;BME280;59607;52.130;5.430;2023-08-24T00:36:17;101906.38;;;17.34;100.00
71774;BME280;59607;52.130;5.430;2023-08-24T00:38:52;101908.69;;;17.37;100.00
71774;BME280;59607;52.130;5.430;2023-08-24T00:41:21;101896.91;;;17.40;100.00
71774;BME280;59607;52.130;5.430;2023-08-24T00:43:55;101888.28;;;17.38;100.00
71774;BME280;59607;52.130;5.430;2023-08-24T00:46:22;101887.81;;;17.34;100.00
71774;BME280;59607;52.130;5.430;2023-08-24T00:48:54;101888.19;;;17.31;100.00
71774;BME280;59607;52.130;5.430;2023-08-24T00:51:30;101880.69;;;17.35;100.00
71774;BME280;59607;52.130;5.430;2023-08-24T00:53:58;101876.84;;;17.37;100.00
71774;BME280;59607;52.130;5.430;2023-08-24T00:56:32;101881.16;;;17.38;100.00
71774;BME280;59607;52.130;5.430;2023-08-24T00:59:13;101880.63;;;17.43;100.00
71774;BME280;59607;52.130;5.430;2023-08-24T01:01:41;101879.78;;;17.43;100.00
71774;BME280;59607;52.130;5.430;2023-08-24T01:04:08;101876.94;;;17.44;100.00
71774;BME280;59607;52.130;5.430;2023-08-24T01:06:42;101888.56;;;17.43;100.00
71774;BME280;59607;52.130;5.430;2023-08-24T01:09:09;101887.75;;;17.43;100.00
71774;BME280;59607;52.130;5.430;2023-08-24T01:17:14;101888.94;;;17.40;100.00
71774;BME280;59607;52.130;5.430;2023-08-24T01:19:49;101900.00;;;17.44;100.00
71774;BME280;59607;52.130;5.430;2023-08-24T01:22:27;101893.88;;;17.43;100.00
71774;BME280;59607;52.130;5.430;2023-08-24T01:25:20;101893.22;;;17.41;100.00
71774;BME280;59607;52.130;5.430;2023-08-24T01:27:55;101884.00;;;17.37;100.00
71774;BME280;59607;52.130;5.430;2023-08-24T01:30:26;101878.88;;;17.35;100.00
71774;BME280;59607;52.130;5.430;2023-08-24T01:32:56;101874.09;;;17.31;100.00
71774;BME280;59607;52.130;5.430;2023-08-24T01:35:23;101878.06;;;17.35;100.00
71774;BME280;59607;52.130;5.430;2023-08-24T01:37:55;101878.69;;;17.37;100.00
71774;BME280;59607;52.130;5.430;2023-08-24T01:43:49;101877.97;;;17.43;100.00
71774;BME280;59607;52.130;5.430;2023-08-24T01:46:24;101895.69;;;17.43;100.00
71774;BME280;59607;52.130;5.430;2023-08-24T01:48:52;101891.22;;;17.43;100.00
71774;BME280;59607;52.130;5.430;2023-08-24T01:51:26;101901.84;;;17.43;100.00
71774;BME280;59607;52.130;5.430;2023-08-24T01:53:53;101905.84;;;17.39;100.00
71774;BME280;59607;52.130;5.430;2023-08-24T01:56:23;101900.16;;;17.42;100.00
71774;BME280;59607;52.130;5.430;2023-08-24T01:58:54;101878.63;;;17.45;100.00
71774;BME280;59607;52.130;5.430;2023-08-24T02:01:25;101877.13;;;17.43;100.00
71774;BME280;59607;52.130;5.430;2023-08-24T02:03:53;101872.94;;;17.48;100.00
71774;BME280;59607;52.130;5.430;2023-08-24T02:06:19;101866.44;;;17.51;100.00
71774;BME280;59607;52.130;5.430;2023-08-24T02:08:51;101865.59;;;17.50;100.00
71774;BME280;59607;52.130;5.430;2023-08-24T02:11:20;101862.56;;;17.54;100.00
71774;BME280;59607;52.130;5.430;2023-08-24T02:13:47;101872.19;;;17.55;100.00
71774;BME280;59607;52.130;5.430;2023-08-24T02:16:20;101865.22;;;17.54;100.00
71774;BME280;59607;52.130;5.430;2023-08-24T02:18:46;101862.94;;;17.50;100.00
71774;BME280;59607;52.130;5.430;2023-08-24T02:21:15;101866.25;;;17.52;100.00
71774;BME280;59607;52.130;5.430;2023-08-24T02:23:42;101857.03;;;17.48;100.00
71774;BME280;59607;52.130;5.430;2023-08-24T02:26:09;101851.06;;;17.46;100.00
71774;BME280;59607;52.130;5.430;2023-08-24T02:28:36;101860.06;;;17.45;100.00
71774;BME280;59607;52.130;5.430;2023-08-24T02:31:07;101860.13;;;17.52;100.00
71774;BME280;59607;52.130;5.430;2023-08-24T02:33:34;101843.81;;;17.55;100.00
71774;BME280;59607;52.130;5.430;2023-08-24T02:36:06;101833.97;;;17.49;100.00
71774;BME280;59607;52.130;5.430;2023-08-24T02:38:35;101821.44;;;17.43;100.00
71774;BME280;59607;52.130;5.430;2023-08-24T02:41:03;101802.16;;;17.34;100.00
71774;BME280;59607;52.130;5.430;2023-08-24T02:43:36;101806.56;;;17.26;100.00
71774;BME280;59607;52.130;5.430;2023-08-24T02:46:07;101798.50;;;17.20;100.00
71774;BME280;59607;52.130;5.430;2023-08-24T02:48:48;101783.63;;;17.19;100.00
71774;BME280;59607;52.130;5.430;2023-08-24T02:51:23;101779.47;;;17.16;100.00
71774;BME280;59607;52.130;5.430;2023-08-24T02:53:50;101772.53;;;17.15;100.00
71774;BME280;59607;52.130;5.430;2023-08-24T02:56:22;101764.59;;;17.15;100.00
71774;BME280;59607;52.130;5.430;2023-08-24T02:58:48;101759.28;;;17.15;100.00
71774;BME280;59607;52.130;5.430;2023-08-24T03:01:29;101763.56;;;17.16;100.00
71774;BME280;59607;52.130;5.430;2023-08-24T03:03:59;101776.69;;;17.18;100.00
71774;BME280;59607;52.130;5.430;2023-08-24T03:06:26;101776.84;;;17.16;100.00
71774;BME280;59607;52.130;5.430;2023-08-24T03:08:52;101774.66;;;17.20;100.00
71774;BME280;59607;52.130;5.430;2023-08-24T03:11:19;101780.78;;;17.20;100.00
71774;BME280;59607;52.130;5.430;2023-08-24T03:13:46;101791.75;;;17.17;100.00
71774;BME280;59607;52.130;5.430;2023-08-24T03:16:15;101785.81;;;17.15;100.00
71774;BME280;59607;52.130;5.430;2023-08-24T03:18:44;101780.88;;;17.12;100.00
71774;BME280;59607;52.130;5.430;2023-08-24T03:21:14;101778.59;;;17.09;100.00
71774;BME280;59607;52.130;5.430;2023-08-24T03:23:41;101772.97;;;17.03;100.00
71774;BME280;59607;52.130;5.430;2023-08-24T03:26:17;101775.81;;;17.02;100.00
71774;BME280;59607;52.130;5.430;2023-08-24T03:28:46;101763.09;;;16.97;100.00
71774;BME280;59607;52.130;5.430;2023-08-24T03:31:16;101757.16;;;16.95;100.00
71774;BME280;59607;52.130;5.430;2023-08-24T03:33:46;101755.72;;;16.93;100.00
71774;BME280;59607;52.130;5.430;2023-08-24T03:36:15;101743.47;;;16.92;100.00
71774;BME280;59607;52.130;5.430;2023-08-24T03:38:50;101741.00;;;16.90;100.00
71774;BME280;59607;52.130;5.430;2023-08-24T03:41:17;101746.50;;;16.88;100.00
71774;BME280;59607;52.130;5.430;2023-08-24T03:43:54;101750.78;;;16.89;100.00
71774;BME280;59607;52.130;5.430;2023-08-24T03:46:35;101745.47;;;16.89;100.00
71774;BME280;59607;52.130;5.430;2023-08-24T03:49:05;101740.38;;;16.88;100.00
71774;BME280;59607;52.130;5.430;2023-08-24T03:51:33;101743.66;;;16.90;100.00
71774;BME280;59607;52.130;5.430;2023-08-24T03:54:00;101738.19;;;16.92;100.00
71774;BME280;59607;52.130;5.430;2023-08-24T03:56:33;101737.34;;;16.91;100.00
71774;BME280;59607;52.130;5.430;2023-08-24T03:58:59;101740.19;;;16.89;100.00
71774;BME280;59607;52.130;5.430;2023-08-24T04:01:32;101740.19;;;16.89;100.00
71774;BME280;59607;52.130;5.430;2023-08-24T04:04:00;101733.69;;;16.92;100.00
71774;BME280;59607;52.130;5.430;2023-08-24T04:06:29;101726.28;;;16.87;100.00
71774;BME280;59607;52.130;5.430;2023-08-24T04:09:06;101739.72;;;16.86;100.00
71774;BME280;59607;52.130;5.430;2023-08-24T04:11:36;101736.88;;;16.87;100.00
71774;BME280;59607;52.130;5.430;2023-08-24T04:14:10;101737.91;;;16.86;100.00
71774;BME280;59607;52.130;5.430;2023-08-24T04:16:44;101738.69;;;16.87;100.00
71774;BME280;59607;52.130;5.430;2023-08-24T04:19:10;101735.97;;;16.80;100.00
71774;BME280;59607;52.130;5.430;2023-08-24T04:21:41;101737.81;;;16.80;100.00
71774;BME280;59607;52.130;5.430;2023-08-24T04:24:08;101739.97;;;16.76;100.00
71774;BME280;59607;52.130;5.430;2023-08-24T04:26:34;101744.00;;;16.72;100.00
71774;BME280;59607;52.130;5.430;2023-08-24T04:29:06;101744.00;;;16.72;100.00
71774;BME280;59607;52.130;5.430;2023-08-24T04:31:36;101746.00;;;16.70;100.00
71774;BME280;59607;52.130;5.430;2023-08-24T04:34:03;101747.66;;;16.71;100.00
71774;BME280;59607;52.130;5.430;2023-08-24T04:36:36;101751.97;;;16.72;100.00
71774;BME280;59607;52.130;5.430;2023-08-24T04:39:02;101753.78;;;16.71;100.00
71774;BME280;59607;52.130;5.430;2023-08-24T04:41:40;101749.78;;;16.75;100.00
71774;BME280;59607;52.130;5.430;2023-08-24T04:44:07;101750.94;;;16.73;100.00
71774;BME280;59607;52.130;5.430;2023-08-24T04:46:34;101745.66;;;16.73;100.00
71774;BME280;59607;52.130;5.430;2023-08-24T04:49:01;101744.28;;;16.77;100.00
71774;BME280;59607;52.130;5.430;2023-08-24T04:51:27;101747.38;;;16.81;100.00
71774;BME280;59607;52.130;5.430;2023-08-24T04:53:58;101745.84;;;16.86;100.00
71774;BME280;59607;52.130;5.430;2023-08-24T04:56:25;101742.09;;;16.96;100.00
71774;BME280;59607;52.130;5.430;2023-08-24T04:58:52;101736.69;;;17.04;100.00
71774;BME280;59607;52.130;5.430;2023-08-24T05:01:30;101736.63;;;17.12;100.00
71774;BME280;59607;52.130;5.430;2023-08-24T05:03:58;101738.53;;;17.19;100.00
71774;BME280;59607;52.130;5.430;2023-08-24T05:06:31;101740.72;;;17.30;100.00
71774;BME280;59607;52.130;5.430;2023-08-24T05:08:58;101730.00;;;17.38;100.00
71774;BME280;59607;52.130;5.430;2023-08-24T05:11:27;101734.56;;;17.45;100.00
71774;BME280;59607;52.130;5.430;2023-08-24T05:13:57;101741.59;;;17.52;100.00
71774;BME280;59607;52.130;5.430;2023-08-24T05:16:24;101745.56;;;17.63;100.00
71774;BME280;59607;52.130;5.430;2023-08-24T05:18:56;101736.75;;;17.78;100.00
71774;BME280;59607;52.130;5.430;2023-08-24T05:21:23;101729.28;;;18.10;100.00
71774;BME280;59607;52.130;5.430;2023-08-24T05:23:56;101722.75;;;18.35;100.00
71774;BME280;59607;52.130;5.430;2023-08-24T05:26:24;101726.06;;;18.15;100.00
71774;BME280;59607;52.130;5.430;2023-08-24T05:28:57;101713.53;;;18.09;100.00
71774;BME280;59607;52.130;5.430;2023-08-24T05:31:23;101707.19;;;18.96;100.00
71774;BME280;59607;52.130;5.430;2023-08-24T05:33:50;101704.75;;;19.84;100.00
71774;BME280;59607;52.130;5.430;2023-08-24T05:36:16;101694.75;;;20.33;95.79
71774;BME280;59607;52.130;5.430;2023-08-24T05:38:43;101693.00;;;20.73;91.81
71774;BME280;59607;52.130;5.430;2023-08-24T05:41:16;101689.19;;;21.15;88.76
71774;BME280;59607;52.130;5.430;2023-08-24T05:43:54;101679.81;;;21.70;84.34
71774;BME280;59607;52.130;5.430;2023-08-24T05:46:21;101686.63;;;21.91;82.92
71774;BME280;59607;52.130;5.430;2023-08-24T05:48:55;101681.50;;;22.15;80.83
71774;BME280;59607;52.130;5.430;2023-08-24T05:51:24;101680.28;;;22.37;80.09
71774;BME280;59607;52.130;5.430;2023-08-24T05:53:55;101674.69;;;22.95;75.93
71774;BME280;59607;52.130;5.430;2023-08-24T05:56:25;101668.03;;;23.16;75.14
71774;BME280;59607;52.130;5.430;2023-08-24T05:58:54;101659.41;;;23.45;72.59
71774;BME280;59607;52.130;5.430;2023-08-24T06:01:34;101669.22;;;23.75;69.87
71774;BME280;59607;52.130;5.430;2023-08-24T06:04:06;101668.19;;;24.12;69.52
71774;BME280;59607;52.130;5.430;2023-08-24T06:06:38;101671.22;;;24.39;67.23
71774;BME280;59607;52.130;5.430;2023-08-24T06:09:07;101660.44;;;24.51;65.68
71774;BME280;59607;52.130;5.430;2023-08-24T06:11:39;101663.53;;;23.95;68.11
71774;BME280;59607;52.130;5.430;2023-08-24T06:14:07;101657.69;;;23.86;68.54
71774;BME280;59607;52.130;5.430;2023-08-24T06:16:33;101658.84;;;24.02;68.20
71774;BME280;59607;52.130;5.430;2023-08-24T06:19:09;101647.47;;;23.28;71.42
71774;BME280;59607;52.130;5.430;2023-08-24T06:21:35;101652.34;;;22.70;75.45
71774;BME280;59607;52.130;5.430;2023-08-24T06:24:02;101651.44;;;22.20;79.39
71774;BME280;59607;52.130;5.430;2023-08-24T06:26:38;101654.25;;;22.06;80.97
71774;BME280;59607;52.130;5.430;2023-08-24T06:29:05;101650.97;;;22.04;81.69
71774;BME280;59607;52.130;5.430;2023-08-24T06:31:37;101627.66;;;21.67;83.09
71774;BME280;59607;52.130;5.430;2023-08-24T06:34:04;101630.72;;;21.45;86.78
71774;BME280;59607;52.130;5.430;2023-08-24T06:36:33;101625.28;;;21.27;88.49
71774;BME280;59607;52.130;5.430;2023-08-24T06:39:00;101630.59;;;21.27;88.45
71774;BME280;59607;52.130;5.430;2023-08-24T06:41:26;101638.97;;;21.05;90.01
71774;BME280;59607;52.130;5.430;2023-08-24T06:43:53;101632.84;;;20.98;90.47
71774;BME280;59607;52.130;5.430;2023-08-24T06:46:24;101631.84;;;20.92;92.24
71774;BME280;59607;52.130;5.430;2023-08-24T06:48:50;101621.47;;;21.16;91.38
71774;BME280;59607;52.130;5.430;2023-08-24T06:51:17;101627.03;;;21.40;90.96
71774;BME280;59607;52.130;5.430;2023-08-24T06:53:57;101612.81;;;21.46;89.03
71774;BME280;59607;52.130;5.430;2023-08-24T06:56:24;101602.69;;;21.29;90.85
71774;BME280;59607;52.130;5.430;2023-08-24T06:58:51;101598.16;;;21.30;90.79
71774;BME280;59607;52.130;5.430;2023-08-24T07:01:17;101591.16;;;21.36;91.13
71774;BME280;59607;52.130;5.430;2023-08-24T07:03:50;101602.75;;;21.48;90.51
71774;BME280;59607;52.130;5.430;2023-08-24T07:06:18;101614.78;;;21.57;89.70
71774;BME280;59607;52.130;5.430;2023-08-24T07:08:45;101611.41;;;21.69;89.20
71774;BME280;59607;52.130;5.430;2023-08-24T07:11:18;101615.06;;;21.81;88.09
71774;BME280;59607;52.130;5.430;2023-08-24T07:13:44;101603.84;;;21.91;87.58
71774;BME280;59607;52.130;5.430;2023-08-24T07:16:14;101603.19;;;21.96;87.76
71774;BME280;59607;52.130;5.430;2023-08-24T07:18:41;101602.97;;;21.98;86.88
71774;BME280;59607;52.130;5.430;2023-08-24T07:21:08;101605.50;;;22.11;87.18
71774;BME280;59607;52.130;5.430;2023-08-24T07:23:34;101589.25;;;21.94;86.95
71774;BME280;59607;52.130;5.430;2023-08-24T07:26:01;101595.97;;;21.78;88.19
71774;BME280;59607;52.130;5.430;2023-08-24T07:28:34;101602.06;;;21.85;87.97
71774;BME280;59607;52.130;5.430;2023-08-24T07:31:15;101602.16;;;21.97;87.70
71774;BME280;59607;52.130;5.430;2023-08-24T07:33:42;101596.50;;;22.24;86.52
71774;BME280;59607;52.130;5.430;2023-08-24T07:36:19;101596.78;;;22.53;85.06
71774;BME280;59607;52.130;5.430;2023-08-24T07:38:53;101597.03;;;22.71;83.60
71774;BME280;59607;52.130;5.430;2023-08-24T07:41:20;101593.38;;;22.84;83.84
71774;BME280;59607;52.130;5.430;2023-08-24T07:43:49;101591.63;;;22.89;82.17
71774;BME280;59607;52.130;5.430;2023-08-24T07:46:16;101593.84;;;22.92;81.44
71774;BME280;59607;52.130;5.430;2023-08-24T07:48:42;101588.16;;;23.01;81.09
71774;BME280;59607;52.130;5.430;2023-08-24T07:51:09;101588.44;;;23.23;80.89
71774;BME280;59607;52.130;5.430;2023-08-24T07:53:41;101601.44;;;23.50;79.40
71774;BME280;59607;52.130;5.430;2023-08-24T07:56:08;101587.22;;;23.62;78.83
71774;BME280;59607;52.130;5.430;2023-08-24T07:58:45;101594.53;;;23.30;79.55
71774;BME280;59607;52.130;5.430;2023-08-24T08:01:17;101592.59;;;23.62;78.58
71774;BME280;59607;52.130;5.430;2023-08-24T08:03:45;101603.75;;;23.59;76.81
71774;BME280;59607;52.130;5.430;2023-08-24T08:06:12;101593.53;;;23.67;76.43
71774;BME280;59607;52.130;5.430;2023-08-24T08:08:42;101592.94;;;23.89;74.61
71774;BME280;59607;52.130;5.430;2023-08-24T08:11:13;101598.63;;;23.93;74.51
71774;BME280;59607;52.130;5.430;2023-08-24T08:13:39;101601.44;;;23.98;73.13
71774;BME280;59607;52.130;5.430;2023-08-24T08:16:12;101593.97;;;24.00;73.76
71774;BME280;59607;52.130;5.430;2023-08-24T08:18:39;101582.88;;;24.33;73.27
71774;BME280;59607;52.130;5.430;2023-08-24T08:21:10;101580.94;;;24.57;72.52
71774;BME280;59607;52.130;5.430;2023-08-24T08:23:41;101576.50;;;24.51;72.15
71774;BME280;59607;52.130;5.430;2023-08-24T08:26:14;101566.84;;;24.50;71.80
71774;BME280;59607;52.130;5.430;2023-08-24T08:28:44;101571.13;;;24.51;71.62
71774;BME280;59607;52.130;5.430;2023-08-24T08:31:11;101572.88;;;24.57;71.91
71774;BME280;59607;52.130;5.430;2023-08-24T08:33:41;101579.09;;;24.46;70.45
71774;BME280;59607;52.130;5.430;2023-08-24T08:36:07;101569.00;;;24.65;69.72
71774;BME280;59607;52.130;5.430;2023-08-24T08:38:34;101562.22;;;24.62;69.86
71774;BME280;59607;52.130;5.430;2023-08-24T08:41:06;101553.69;;;24.65;70.98
71774;BME280;59607;52.130;5.430;2023-08-24T08:43:32;101554.81;;;24.82;70.13
71774;BME280;59607;52.130;5.430;2023-08-24T08:46:02;101545.09;;;24.81;69.29
71774;BME280;59607;52.130;5.430;2023-08-24T08:48:31;101536.81;;;24.82;68.49
71774;BME280;59607;52.130;5.430;2023-08-24T08:51:01;101533.88;;;24.96;69.03
71774;BME280;59607;52.130;5.430;2023-08-24T08:53:34;101528.72;;;25.11;67.43
71774;BME280;59607;52.130;5.430;2023-08-24T08:56:02;101527.50;;;25.19;67.67
71774;BME280;59607;52.130;5.430;2023-08-24T08:58:34;101516.34;;;25.45;65.01
71774;BME280;59607;52.130;5.430;2023-08-24T09:01:03;101512.34;;;25.47;65.18
71774;BME280;59607;52.130;5.430;2023-08-24T09:03:38;101512.38;;;25.70;64.51
71774;BME280;59607;52.130;5.430;2023-08-24T09:06:05;101498.78;;;25.77;62.99
71774;BME280;59607;52.130;5.430;2023-08-24T09:08:34;101498.34;;;25.62;63.69
71774;BME280;59607;52.130;5.430;2023-08-24T09:11:01;101496.47;;;25.85;62.47
71774;BME280;59607;52.130;5.430;2023-08-24T09:13:29;101499.00;;;25.97;61.14
71774;BME280;59607;52.130;5.430;2023-08-24T09:16:08;101508.13;;;26.19;61.59
71774;BME280;59607;52.130;5.430;2023-08-24T09:18:41;101498.22;;;26.24;60.61
71774;BME280;59607;52.130;5.430;2023-08-24T09:21:18;101491.16;;;26.18;59.98
71774;BME280;59607;52.130;5.430;2023-08-24T09:23:55;101487.59;;;26.35;60.15
71774;BME280;59607;52.130;5.430;2023-08-24T09:26:34;101476.97;;;26.45;60.04
71774;BME280;59607;52.130;5.430;2023-08-24T09:29:12;101467.09;;;26.56;58.35
71774;BME280;59607;52.130;5.430;2023-08-24T09:31:42;101473.38;;;26.67;57.20
71774;BME280;59607;52.130;5.430;2023-08-24T09:34:19;101464.03;;;26.80;58.36
71774;BME280;59607;52.130;5.430;2023-08-24T09:36:57;101466.34;;;26.99;58.91
71774;BME280;59607;52.130;5.430;2023-08-24T09:39:27;101458.44;;;26.87;57.97
71774;BME280;59607;52.130;5.430;2023-08-24T09:42:07;101452.03;;;26.93;56.59
71774;BME280;59607;52.130;5.430;2023-08-24T09:44:47;101454.06;;;27.14;57.53
71774;BME280;59607;52.130;5.430;2023-08-24T09:47:17;101446.63;;;27.37;56.07
71774;BME280;59607;52.130;5.430;2023-08-24T09:49:46;101451.50;;;27.45;56.68
71774;BME280;59607;52.130;5.430;2023-08-24T09:52:20;101454.25;;;27.50;56.16
71774;BME280;59607;52.130;5.430;2023-08-24T09:54:51;101449.22;;;27.69;56.21
71774;BME280;59607;52.130;5.430;2023-08-24T09:57:26;101460.03;;;27.75;56.05
71774;BME280;59607;52.130;5.430;2023-08-24T09:59:52;101451.09;;;27.69;56.06
71774;BME280;59607;52.130;5.430;2023-08-24T10:02:28;101464.31;;;27.76;57.40
71774;BME280;59607;52.130;5.430;2023-08-24T10:04:58;101449.41;;;27.52;56.63
71774;BME280;59607;52.130;5.430;2023-08-24T10:07:41;101462.56;;;27.43;56.79
71774;BME280;59607;52.130;5.430;2023-08-24T10:10:19;101465.44;;;27.26;57.95
71774;BME280;59607;52.130;5.430;2023-08-24T10:12:51;101459.72;;;27.12;59.75
71774;BME280;59607;52.130;5.430;2023-08-24T10:15:21;101464.50;;;27.05;60.17
71774;BME280;59607;52.130;5.430;2023-08-24T10:17:57;101453.09;;;26.92;61.97
71774;BME280;59607;52.130;5.430;2023-08-24T10:20:27;101459.19;;;26.77;63.26
71774;BME280;59607;52.130;5.430;2023-08-24T10:23:14;101450.97;;;26.56;64.85
71774;BME280;59607;52.130;5.430;2023-08-24T10:25:42;101446.72;;;26.33;66.02
71774;BME280;59607;52.130;5.430;2023-08-24T10:28:14;101447.63;;;26.16;68.06
71774;BME280;59607;52.130;5.430;2023-08-24T10:30:51;101447.69;;;25.99;68.96
71774;BME280;59607;52.130;5.430;2023-08-24T10:33:26;101444.59;;;25.85;69.62
71774;BME280;59607;52.130;5.430;2023-08-24T10:35:53;101441.53;;;25.76;71.28
71774;BME280;59607;52.130;5.430;2023-08-24T10:38:41;101448.81;;;25.58;71.07
71774;BME280;59607;52.130;5.430;2023-08-24T10:41:13;101446.81;;;25.48;74.53
71774;BME280;59607;52.130;5.430;2023-08-24T10:43:51;101438.91;;;25.36;75.84
71774;BME280;59607;52.130;5.430;2023-08-24T10:46:17;101445.25;;;25.30;74.31
71774;BME280;59607;52.130;5.430;2023-08-24T10:54:02;101463.47;;;25.28;79.22
71774;BME280;59607;52.130;5.430;2023-08-24T10:56:39;101456.78;;;25.31;81.26
71774;BME280;59607;52.130;5.430;2023-08-24T10:59:16;101451.16;;;25.32;81.09
71774;BME280;59607;52.130;5.430;2023-08-24T11:04:16;101436.78;;;25.61;79.18
71774;BME280;59607;52.130;5.430;2023-08-24T11:06:59;101432.88;;;25.69;75.52
71774;BME280;59607;52.130;5.430;2023-08-24T11:09:47;101436.41;;;25.74;77.11
71774;BME280;59607;52.130;5.430;2023-08-24T11:12:15;101423.81;;;25.75;79.12
71774;BME280;59607;52.130;5.430;2023-08-24T11:14:52;101436.41;;;25.74;79.18
71774;BME280;59607;52.130;5.430;2023-08-24T11:17:31;101435.88;;;25.72;79.64
71774;BME280;59607;52.130;5.430;2023-08-24T11:20:00;101435.50;;;25.63;80.85
71774;BME280;59607;52.130;5.430;2023-08-24T11:22:32;101428.00;;;25.66;82.14
71774;BME280;59607;52.130;5.430;2023-08-24T11:24:58;101414.47;;;25.60;80.17
71774;BME280;59607;52.130;5.430;2023-08-24T11:27:29;101414.00;;;25.63;80.38
71774;BME280;59607;52.130;5.430;2023-08-24T11:29:59;101398.50;;;25.71;79.55
71774;BME280;59607;52.130;5.430;2023-08-24T11:32:29;101395.34;;;25.79;80.39
71774;BME280;59607;52.130;5.430;2023-08-24T11:35:03;101386.25;;;25.80;79.23
71774;BME280;59607;52.130;5.430;2023-08-24T11:37:30;101380.38;;;25.83;78.55
71774;BME280;59607;52.130;5.430;2023-08-24T11:40:01;101372.75;;;25.75;77.07
71774;BME280;59607;52.130;5.430;2023-08-24T11:42:36;101378.50;;;25.84;78.58
71774;BME280;59607;52.130;5.430;2023-08-24T11:45:11;101360.47;;;25.84;76.16
71774;BME280;59607;52.130;5.430;2023-08-24T11:47:53;101358.88;;;25.83;76.69
71774;BME280;59607;52.130;5.430;2023-08-24T11:50:32;101363.53;;;25.93;79.06
71774;BME280;59607;52.130;5.430;2023-08-24T11:53:08;101356.31;;;25.99;74.21
71774;BME280;59607;52.130;5.430;2023-08-24T11:55:39;101349.03;;;25.94;75.64
71774;BME280;59607;52.130;5.430;2023-08-24T11:58:32;101343.81;;;26.15;73.95
71774;BME280;59607;52.130;5.430;2023-08-24T12:00:58;101352.50;;;26.22;73.13
71774;BME280;59607;52.130;5.430;2023-08-24T12:03:27;101344.88;;;26.42;72.12
71774;BME280;59607;52.130;5.430;2023-08-24T12:06:01;101349.72;;;26.45;70.28
71774;BME280;59607;52.130;5.430;2023-08-24T12:08:28;101354.94;;;26.57;70.56
71774;BME280;59607;52.130;5.430;2023-08-24T12:11:20;101349.91;;;26.71;70.00
71774;BME280;59607;52.130;5.430;2023-08-24T12:13:51;101353.63;;;27.13;67.98
71774;BME280;59607;52.130;5.430;2023-08-24T12:16:36;101349.09;;;27.24;67.32
71774;BME280;59607;52.130;5.430;2023-08-24T12:19:11;101355.91;;;27.47;65.69
71774;BME280;59607;52.130;5.430;2023-08-24T12:21:45;101341.88;;;27.45;65.20
71774;BME280;59607;52.130;5.430;2023-08-24T12:24:16;101335.72;;;27.66;64.14
71774;BME280;59607;52.130;5.430;2023-08-24T12:26:57;101336.53;;;27.66;63.84
71774;BME280;59607;52.130;5.430;2023-08-24T12:29:28;101321.19;;;27.67;64.00
71774;BME280;59607;52.130;5.430;2023-08-24T12:31:58;101310.47;;;27.72;64.71
71774;BME280;59607;52.130;5.430;2023-08-24T12:34:30;101313.16;;;27.72;63.34
71774;BME280;59607;52.130;5.430;2023-08-24T12:36:56;101310.06;;;27.32;65.21
71774;BME280;59607;52.130;5.430;2023-08-24T12:39:23;101306.09;;;27.55;64.83
71774;BME280;59607;52.130;5.430;2023-08-24T12:41:55;101297.19;;;27.55;64.58
71774;BME280;59607;52.130;5.430;2023-08-24T12:44:22;101289.66;;;27.57;64.55
71774;BME280;59607;52.130;5.430;2023-08-24T12:46:51;101270.75;;;27.36;64.32
71774;BME280;59607;52.130;5.430;2023-08-24T12:49:18;101259.69;;;27.17;65.07
71774;BME280;59607;52.130;5.430;2023-08-24T12:51:44;101248.63;;;27.13;65.35
71774;BME280;59607;52.130;5.430;2023-08-24T12:54:15;101262.38;;;27.22;64.94
71774;BME280;59607;52.130;5.430;2023-08-24T12:56:42;101256.22;;;27.27;64.62
71774;BME280;59607;52.130;5.430;2023-08-24T12:59:08;101247.03;;;27.12;64.00
71774;BME280;59607;52.130;5.430;2023-08-24T13:01:36;101234.09;;;27.19;64.74
71774;BME280;59607;52.130;5.430;2023-08-24T13:04:05;101237.63;;;27.20;63.90
71774;BME280;59607;52.130;5.430;2023-08-24T13:06:32;101222.31;;;27.62;63.01
71774;BME280;59607;52.130;5.430;2023-08-24T13:09:01;101220.16;;;27.80;62.38
71774;BME280;59607;52.130;5.430;2023-08-24T13:11:29;101203.44;;;27.93;62.30
71774;BME280;59607;52.130;5.430;2023-08-24T13:13:56;101200.22;;;27.81;61.86
71774;BME280;59607;52.130;5.430;2023-08-24T13:16:22;101220.94;;;27.65;62.26
71774;BME280;59607;52.130;5.430;2023-08-24T13:19:03;101231.75;;;27.75;62.69
71774;BME280;59607;52.130;5.430;2023-08-24T13:21:29;101234.72;;;27.68;62.36